sensor_id;sensor_type;location;lat;lon;timestamp;P1;durP1;ratioP1;P2;durP2;ratioP2
44476;SDS011;30180;44.788;10.366;2024-03-02T00:02:04;5.97;;;3.40;;
44476;SDS011;30180;44.788;10.366;2024-03-02T00:04:33;6.20;;;3.35;;
44476;SDS011;30180;44.788;10.366;2024-03-02T00:07:02;6.63;;;4.03;;
44476;SDS011;30180;44.788;10.366;2024-03-02T00:09:30;5.20;;;2.90;;
44476;SDS011;30180;44.788;10.366;2024-03-02T00:11:58;5.28;;;3.35;;
44476;SDS011;30180;44.788;10.366;2024-03-02T00:14:30;6.72;;;3.83;;
44476;SDS011;30180;44.788;10.366;2024-03-02T00:16:58;6.15;;;3.40;;
44476;SDS011;30180;44.788;10.366;2024-03-02T00:19:27;7.63;;;3.30;;
44476;SDS011;30180;44.788;10.366;2024-03-02T00:21:55;9.45;;;3.55;;
44476;SDS011;30180;44.788;10.366;2024-03-02T00:24:26;7.22;;;3.50;;
44476;SDS011;30180;44.788;10.366;2024-03-02T00:27:00;6.38;;;3.00;;
44476;SDS011;30180;44.788;10.366;2024-03-02T00:29:31;5.25;;;3.13;;
44476;SDS011;30180;44.788;10.366;2024-03-02T00:31:59;6.97;;;3.50;;
44476;SDS011;30180;44.788;10.366;2024-03-02T00:34:29;6.75;;;3.30;;
44476;SDS011;30180;44.788;10.366;2024-03-02T00:36:57;7.13;;;3.90;;
44476;SDS011;30180;44.788;10.366;2024-03-02T00:39:26;7.05;;;3.38;;
44476;SDS011;30180;44.788;10.366;2024-03-02T00:41:55;6.82;;;3.60;;
44476;SDS011;30180;44.788;10.366;2024-03-02T00:44:23;5.88;;;3.58;;
44476;SDS011;30180;44.788;10.366;2024-03-02T00:46:57;8.68;;;3.60;;
44476;SDS011;30180;44.788;10.366;2024-03-02T00:49:27;5.85;;;3.35;;
44476;SDS011;30180;44.788;10.366;2024-03-02T00:51:56;6.63;;;3.42;;
44476;SDS011;30180;44.788;10.366;2024-03-02T00:54:25;7.22;;;3.47;;
44476;SDS011;30180;44.788;10.366;2024-03-02T00:56:55;7.32;;;3.42;;
44476;SDS011;30180;44.788;10.366;2024-03-02T00:59:25;7.07;;;3.22;;
44476;SDS011;30180;44.788;10.366;2024-03-02T01:01:53;6.40;;;3.42;;
44476;SDS011;30180;44.788;10.366;2024-03-02T01:04:23;6.47;;;3.63;;
44476;SDS011;30180;44.788;10.366;2024-03-02T01:06:51;6.95;;;3.63;;
44476;SDS011;30180;44.788;10.366;2024-03-02T01:09:21;7.25;;;3.53;;
44476;SDS011;30180;44.788;10.366;2024-03-02T01:11:50;6.30;;;3.60;;
44476;SDS011;30180;44.788;10.366;2024-03-02T01:14:18;7.60;;;3.53;;
44476;SDS011;30180;44.788;10.366;2024-03-02T01:16:46;8.82;;;3.58;;
44476;SDS011;30180;44.788;10.366;2024-03-02T01:19:15;7.32;;;3.30;;
44476;SDS011;30180;44.788;10.366;2024-03-02T01:21:45;8.27;;;3.40;;
44476;SDS011;30180;44.788;10.366;2024-03-02T01:24:14;7.13;;;3.47;;
44476;SDS011;30180;44.788;10.366;2024-03-02T01:26:43;6.43;;;3.53;;
44476;SDS011;30180;44.788;10.366;2024-03-02T01:29:11;6.82;;;3.40;;
44476;SDS011;30180;44.788;10.366;2024-03-02T01:31:39;5.70;;;3.38;;
44476;SDS011;30180;44.788;10.366;2024-03-02T01:34:08;7.43;;;3.67;;
44476;SDS011;30180;44.788;10.366;2024-03-02T01:36:37;6.70;;;3.25;;
44476;SDS011;30180;44.788;10.366;2024-03-02T01:39:07;9.23;;;3.78;;
44476;SDS011;30180;44.788;10.366;2024-03-02T01:41:36;6.57;;;4.20;;
44476;SDS011;30180;44.788;10.366;2024-03-02T01:44:05;6.57;;;3.30;;
44476;SDS011;30180;44.788;10.366;2024-03-02T01:46:33;7.63;;;3.25;;
44476;SDS011;30180;44.788;10.366;2024-03-02T01:49:02;6.97;;;3.20;;
44476;SDS011;30180;44.788;10.366;2024-03-02T01:51:31;6.50;;;3.47;;
44476;SDS011;30180;44.788;10.366;2024-03-02T01:54:00;6.88;;;3.85;;
44476;SDS011;30180;44.788;10.366;2024-03-02T01:56:29;6.53;;;3.85;;
44476;SDS011;30180;44.788;10.366;2024-03-02T01:58:58;7.18;;;3.35;;
44476;SDS011;30180;44.788;10.366;2024-03-02T02:01:26;7.18;;;3.50;;
44476;SDS011;30180;44.788;10.366;2024-03-02T02:03:54;6.05;;;3.80;;
44476;SDS011;30180;44.788;10.366;2024-03-02T02:06:23;5.07;;;3.20;;
44476;SDS011;30180;44.788;10.366;2024-03-02T02:08:51;6.35;;;3.38;;
44476;SDS011;30180;44.788;10.366;2024-03-02T02:11:20;8.07;;;3.90;;
44476;SDS011;30180;44.788;10.366;2024-03-02T02:13:50;7.53;;;3.75;;
44476;SDS011;30180;44.788;10.366;2024-03-02T02:16:18;6.38;;;3.65;;
44476;SDS011;30180;44.788;10.366;2024-03-02T02:18:46;7.13;;;4.05;;
44476;SDS011;30180;44.788;10.366;2024-03-02T02:21:15;5.63;;;3.65;;
44476;SDS011;30180;44.788;10.366;2024-03-02T02:23:45;7.78;;;3.75;;
44476;SDS011;30180;44.788;10.366;2024-03-02T02:26:15;6.38;;;3.83;;
44476;SDS011;30180;44.788;10.366;2024-03-02T02:28:43;7.55;;;3.95;;
44476;SDS011;30180;44.788;10.366;2024-03-02T02:31:13;6.07;;;3.50;;
44476;SDS011;30180;44.788;10.366;2024-03-02T02:33:42;5.32;;;3.25;;
44476;SDS011;30180;44.788;10.366;2024-03-02T02:36:10;7.32;;;3.72;;
44476;SDS011;30180;44.788;10.366;2024-03-02T02:38:40;6.00;;;3.45;;
44476;SDS011;30180;44.788;10.366;2024-03-02T02:41:13;5.78;;;3.35;;
44476;SDS011;30180;44.788;10.366;2024-03-02T02:43:41;7.68;;;3.75;;
44476;SDS011;30180;44.788;10.366;2024-03-02T02:46:09;6.25;;;3.80;;
44476;SDS011;30180;44.788;10.366;2024-03-02T02:48:38;7.15;;;3.60;;
44476;SDS011;30180;44.788;10.366;2024-03-02T02:51:06;8.68;;;3.83;;
44476;SDS011;30180;44.788;10.366;2024-03-02T02:53:35;5.65;;;3.63;;
44476;SDS011;30180;44.788;10.366;2024-03-02T02:56:06;5.85;;;3.58;;
44476;SDS011;30180;44.788;10.366;2024-03-02T02:58:36;5.93;;;3.65;;
44476;SDS011;30180;44.788;10.366;2024-03-02T03:01:05;6.22;;;3.45;;
44476;SDS011;30180;44.788;10.366;2024-03-02T03:03:34;7.28;;;3.70;;
44476;SDS011;30180;44.788;10.366;2024-03-02T03:06:02;7.00;;;3.80;;
44476;SDS011;30180;44.788;10.366;2024-03-02T03:08:31;7.43;;;4.00;;
44476;SDS011;30180;44.788;10.366;2024-03-02T03:10:59;7.60;;;3.97;;
44476;SDS011;30180;44.788;10.366;2024-03-02T03:13:28;6.28;;;3.63;;
44476;SDS011;30180;44.788;10.366;2024-03-02T03:15:58;7.30;;;3.78;;
44476;SDS011;30180;44.788;10.366;2024-03-02T03:18:27;6.63;;;3.72;;
44476;SDS011;30180;44.788;10.366;2024-03-02T03:20:55;7.40;;;3.55;;
44476;SDS011;30180;44.788;10.366;2024-03-02T03:23:24;6.55;;;3.85;;
44476;SDS011;30180;44.788;10.366;2024-03-02T03:25:53;6.68;;;3.85;;
44476;SDS011;30180;44.788;10.366;2024-03-02T03:28:21;6.47;;;3.95;;
44476;SDS011;30180;44.788;10.366;2024-03-02T03:30:50;8.05;;;4.28;;
44476;SDS011;30180;44.788;10.366;2024-03-02T03:33:19;6.88;;;3.53;;
44476;SDS011;30180;44.788;10.366;2024-03-02T03:35:48;7.25;;;4.05;;
44476;SDS011;30180;44.788;10.366;2024-03-02T03:38:16;6.53;;;3.75;;
44476;SDS011;30180;44.788;10.366;2024-03-02T03:40:45;6.60;;;3.85;;
44476;SDS011;30180;44.788;10.366;2024-03-02T03:43:14;7.60;;;3.55;;
44476;SDS011;30180;44.788;10.366;2024-03-02T03:45:42;7.18;;;3.53;;
44476;SDS011;30180;44.788;10.366;2024-03-02T03:48:10;6.43;;;3.72;;
44476;SDS011;30180;44.788;10.366;2024-03-02T03:50:40;6.60;;;3.45;;
44476;SDS011;30180;44.788;10.366;2024-03-02T03:53:09;6.43;;;3.55;;
44476;SDS011;30180;44.788;10.366;2024-03-02T03:55:37;6.93;;;3.50;;
44476;SDS011;30180;44.788;10.366;2024-03-02T03:58:05;7.10;;;3.70;;
44476;SDS011;30180;44.788;10.366;2024-03-02T04:00:34;6.13;;;3.25;;
44476;SDS011;30180;44.788;10.366;2024-03-02T04:03:02;5.13;;;3.47;;
44476;SDS011;30180;44.788;10.366;2024-03-02T04:05:31;7.47;;;3.88;;
44476;SDS011;30180;44.788;10.366;2024-03-02T04:08:01;5.80;;;3.38;;
44476;SDS011;30180;44.788;10.366;2024-03-02T04:10:29;6.00;;;3.47;;
44476;SDS011;30180;44.788;10.366;2024-03-02T04:12:57;7.03;;;4.22;;
44476;SDS011;30180;44.788;10.366;2024-03-02T04:15:26;7.20;;;3.45;;
44476;SDS011;30180;44.788;10.366;2024-03-02T04:17:54;7.50;;;3.70;;
44476;SDS011;30180;44.788;10.366;2024-03-02T04:20:22;6.78;;;3.58;;
44476;SDS011;30180;44.788;10.366;2024-03-02T04:22:51;6.97;;;3.67;;
44476;SDS011;30180;44.788;10.366;2024-03-02T04:25:21;6.80;;;4.10;;
44476;SDS011;30180;44.788;10.366;2024-03-02T04:27:50;6.47;;;3.55;;
44476;SDS011;30180;44.788;10.366;2024-03-02T04:30:18;5.30;;;3.65;;
44476;SDS011;30180;44.788;10.366;2024-03-02T04:32:47;6.80;;;3.50;;
44476;SDS011;30180;44.788;10.366;2024-03-02T04:35:15;6.55;;;3.20;;
44476;SDS011;30180;44.788;10.366;2024-03-02T04:37:43;5.40;;;3.17;;
44476;SDS011;30180;44.788;10.366;2024-03-02T04:40:12;6.43;;;3.50;;
44476;SDS011;30180;44.788;10.366;2024-03-02T04:42:42;4.90;;;3.00;;
44476;SDS011;30180;44.788;10.366;2024-03-02T04:45:10;5.15;;;3.05;;
44476;SDS011;30180;44.788;10.366;2024-03-02T04:47:39;9.25;;;3.00;;
44476;SDS011;30180;44.788;10.366;2024-03-02T04:50:07;5.55;;;3.05;;
44476;SDS011;30180;44.788;10.366;2024-03-02T04:52:36;8.30;;;3.67;;
44476;SDS011;30180;44.788;10.366;2024-03-02T04:55:05;5.25;;;3.17;;
44476;SDS011;30180;44.788;10.366;2024-03-02T04:57:47;5.05;;;2.80;;
44476;SDS011;30180;44.788;10.366;2024-03-02T05:00:17;5.40;;;3.25;;
44476;SDS011;30180;44.788;10.366;2024-03-02T05:02:46;5.70;;;2.92;;
44476;SDS011;30180;44.788;10.366;2024-03-02T05:05:14;6.40;;;3.30;;
44476;SDS011;30180;44.788;10.366;2024-03-02T05:07:43;6.07;;;3.08;;
44476;SDS011;30180;44.788;10.366;2024-03-02T05:10:11;6.18;;;2.80;;
44476;SDS011;30180;44.788;10.366;2024-03-02T05:12:41;5.40;;;2.75;;
44476;SDS011;30180;44.788;10.366;2024-03-02T05:15:25;6.53;;;3.08;;
44476;SDS011;30180;44.788;10.366;2024-03-02T05:17:54;5.38;;;3.05;;
44476;SDS011;30180;44.788;10.366;2024-03-02T05:20:24;4.68;;;2.55;;
44476;SDS011;30180;44.788;10.366;2024-03-02T05:22:53;6.85;;;2.38;;
44476;SDS011;30180;44.788;10.366;2024-03-02T05:25:21;6.20;;;2.85;;
44476;SDS011;30180;44.788;10.366;2024-03-02T05:27:49;5.03;;;2.85;;
44476;SDS011;30180;44.788;10.366;2024-03-02T05:30:18;4.57;;;2.70;;
44476;SDS011;30180;44.788;10.366;2024-03-02T05:32:48;3.83;;;2.40;;
44476;SDS011;30180;44.788;10.366;2024-03-02T05:35:16;4.15;;;2.70;;
44476;SDS011;30180;44.788;10.366;2024-03-02T05:37:45;4.00;;;2.40;;
44476;SDS011;30180;44.788;10.366;2024-03-02T05:40:13;5.15;;;2.85;;
44476;SDS011;30180;44.788;10.366;2024-03-02T05:42:42;4.68;;;2.30;;
44476;SDS011;30180;44.788;10.366;2024-03-02T05:45:10;4.88;;;2.42;;
44476;SDS011;30180;44.788;10.366;2024-03-02T05:47:39;4.50;;;2.60;;
44476;SDS011;30180;44.788;10.366;2024-03-02T05:50:09;5.70;;;2.60;;
44476;SDS011;30180;44.788;10.366;2024-03-02T05:52:37;4.05;;;2.65;;
44476;SDS011;30180;44.788;10.366;2024-03-02T05:55:07;6.35;;;2.50;;
44476;SDS011;30180;44.788;10.366;2024-03-02T05:57:35;4.10;;;2.25;;
44476;SDS011;30180;44.788;10.366;2024-03-02T06:00:22;4.55;;;2.50;;
44476;SDS011;30180;44.788;10.366;2024-03-02T06:02:50;5.10;;;2.40;;
44476;SDS011;30180;44.788;10.366;2024-03-02T06:05:20;4.80;;;2.60;;
44476;SDS011;30180;44.788;10.366;2024-03-02T06:07:49;3.50;;;2.20;;
44476;SDS011;30180;44.788;10.366;2024-03-02T06:10:17;3.80;;;2.40;;
44476;SDS011;30180;44.788;10.366;2024-03-02T06:12:47;4.43;;;2.60;;
44476;SDS011;30180;44.788;10.366;2024-03-02T06:15:15;4.72;;;2.22;;
44476;SDS011;30180;44.788;10.366;2024-03-02T06:17:45;5.95;;;2.72;;
44476;SDS011;30180;44.788;10.366;2024-03-02T06:20:14;4.55;;;2.50;;
44476;SDS011;30180;44.788;10.366;2024-03-02T06:22:43;4.32;;;2.50;;
44476;SDS011;30180;44.788;10.366;2024-03-02T06:25:12;5.25;;;2.10;;
44476;SDS011;30180;44.788;10.366;2024-03-02T06:27:40;6.18;;;2.50;;
44476;SDS011;30180;44.788;10.366;2024-03-02T06:30:09;4.65;;;2.42;;
44476;SDS011;30180;44.788;10.366;2024-03-02T06:32:39;6.20;;;2.47;;
44476;SDS011;30180;44.788;10.366;2024-03-02T06:35:08;4.43;;;2.38;;
44476;SDS011;30180;44.788;10.366;2024-03-02T06:37:38;4.40;;;2.40;;
44476;SDS011;30180;44.788;10.366;2024-03-02T06:40:09;4.20;;;2.35;;
44476;SDS011;30180;44.788;10.366;2024-03-02T06:42:37;3.45;;;2.20;;
44476;SDS011;30180;44.788;10.366;2024-03-02T06:45:06;4.95;;;2.00;;
44476;SDS011;30180;44.788;10.366;2024-03-02T06:47:35;4.40;;;2.50;;
44476;SDS011;30180;44.788;10.366;2024-03-02T06:50:03;4.28;;;2.33;;
44476;SDS011;30180;44.788;10.366;2024-03-02T06:52:33;7.30;;;2.40;;
44476;SDS011;30180;44.788;10.366;2024-03-02T06:55:02;4.13;;;2.33;;
44476;SDS011;30180;44.788;10.366;2024-03-02T06:57:33;6.07;;;2.55;;
44476;SDS011;30180;44.788;10.366;2024-03-02T07:00:02;4.75;;;2.20;;
44476;SDS011;30180;44.788;10.366;2024-03-02T07:02:35;6.50;;;2.70;;
44476;SDS011;30180;44.788;10.366;2024-03-02T07:05:04;7.28;;;2.85;;
44476;SDS011;30180;44.788;10.366;2024-03-02T07:07:34;5.28;;;1.95;;
44476;SDS011;30180;44.788;10.366;2024-03-02T07:10:03;4.45;;;2.47;;
44476;SDS011;30180;44.788;10.366;2024-03-02T07:15:04;3.63;;;2.15;;
44476;SDS011;30180;44.788;10.366;2024-03-02T07:17:51;4.70;;;2.42;;
44476;SDS011;30180;44.788;10.366;2024-03-02T07:20:20;4.20;;;2.28;;
44476;SDS011;30180;44.788;10.366;2024-03-02T07:22:49;4.85;;;2.30;;
44476;SDS011;30180;44.788;10.366;2024-03-02T07:25:17;4.22;;;2.05;;
44476;SDS011;30180;44.788;10.366;2024-03-02T07:27:50;4.53;;;2.33;;
44476;SDS011;30180;44.788;10.366;2024-03-02T07:30:19;3.65;;;2.13;;
44476;SDS011;30180;44.788;10.366;2024-03-02T07:32:49;5.47;;;2.22;;
44476;SDS011;30180;44.788;10.366;2024-03-02T07:35:18;4.05;;;2.40;;
44476;SDS011;30180;44.788;10.366;2024-03-02T07:37:48;4.10;;;2.33;;
44476;SDS011;30180;44.788;10.366;2024-03-02T07:40:17;6.28;;;2.45;;
44476;SDS011;30180;44.788;10.366;2024-03-02T07:42:46;4.32;;;2.13;;
44476;SDS011;30180;44.788;10.366;2024-03-02T07:45:16;3.90;;;2.38;;
44476;SDS011;30180;44.788;10.366;2024-03-02T07:47:45;3.08;;;1.90;;
44476;SDS011;30180;44.788;10.366;2024-03-02T07:50:14;4.63;;;2.10;;
44476;SDS011;30180;44.788;10.366;2024-03-02T07:52:42;3.85;;;2.13;;
44476;SDS011;30180;44.788;10.366;2024-03-02T07:55:11;3.58;;;2.45;;
44476;SDS011;30180;44.788;10.366;2024-03-02T07:57:40;5.63;;;1.90;;
44476;SDS011;30180;44.788;10.366;2024-03-02T08:00:10;3.15;;;1.67;;
44476;SDS011;30180;44.788;10.366;2024-03-02T08:02:41;5.30;;;2.03;;
44476;SDS011;30180;44.788;10.366;2024-03-02T08:05:10;4.63;;;2.25;;
44476;SDS011;30180;44.788;10.366;2024-03-02T08:07:38;3.88;;;2.13;;
44476;SDS011;30180;44.788;10.366;2024-03-02T08:10:08;5.10;;;2.17;;
44476;SDS011;30180;44.788;10.366;2024-03-02T08:12:37;4.88;;;2.10;;
44476;SDS011;30180;44.788;10.366;2024-03-02T08:15:06;3.53;;;1.95;;
44476;SDS011;30180;44.788;10.366;2024-03-02T08:17:35;4.10;;;2.28;;
44476;SDS011;30180;44.788;10.366;2024-03-02T08:20:06;4.10;;;2.17;;
44476;SDS011;30180;44.788;10.366;2024-03-02T08:22:36;6.13;;;1.98;;
44476;SDS011;30180;44.788;10.366;2024-03-02T08:25:04;3.33;;;2.10;;
44476;SDS011;30180;44.788;10.366;2024-03-02T08:27:34;3.78;;;2.05;;
44476;SDS011;30180;44.788;10.366;2024-03-02T08:30:03;4.80;;;2.20;;
44476;SDS011;30180;44.788;10.366;2024-03-02T08:32:33;2.92;;;2.00;;
44476;SDS011;30180;44.788;10.366;2024-03-02T08:35:03;4.63;;;2.45;;
44476;SDS011;30180;44.788;10.366;2024-03-02T08:37:34;4.25;;;2.30;;
44476;SDS011;30180;44.788;10.366;2024-03-02T08:40:05;3.55;;;2.30;;
44476;SDS011;30180;44.788;10.366;2024-03-02T08:42:34;3.37;;;2.10;;
44476;SDS011;30180;44.788;10.366;2024-03-02T08:45:03;3.97;;;1.98;;
44476;SDS011;30180;44.788;10.366;2024-03-02T08:47:32;4.18;;;2.28;;
44476;SDS011;30180;44.788;10.366;2024-03-02T08:50:01;7.85;;;2.20;;
44476;SDS011;30180;44.788;10.366;2024-03-02T08:52:32;5.38;;;2.75;;
44476;SDS011;30180;44.788;10.366;2024-03-02T08:55:00;3.90;;;2.25;;
44476;SDS011;30180;44.788;10.366;2024-03-02T08:57:29;5.05;;;2.47;;
44476;SDS011;30180;44.788;10.366;2024-03-02T08:59:57;5.30;;;2.55;;
44476;SDS011;30180;44.788;10.366;2024-03-02T09:02:26;5.10;;;2.55;;
44476;SDS011;30180;44.788;10.366;2024-03-02T09:04:55;4.47;;;2.30;;
44476;SDS011;30180;44.788;10.366;2024-03-02T09:07:23;11.65;;;2.92;;
44476;SDS011;30180;44.788;10.366;2024-03-02T09:09:53;5.93;;;2.78;;
44476;SDS011;30180;44.788;10.366;2024-03-02T09:12:22;6.97;;;2.97;;
44476;SDS011;30180;44.788;10.366;2024-03-02T09:14:50;5.03;;;2.72;;
44476;SDS011;30180;44.788;10.366;2024-03-02T09:17:19;6.70;;;2.85;;
44476;SDS011;30180;44.788;10.366;2024-03-02T09:19:48;6.45;;;2.60;;
44476;SDS011;30180;44.788;10.366;2024-03-02T09:22:19;6.95;;;2.80;;
44476;SDS011;30180;44.788;10.366;2024-03-02T09:24:47;8.23;;;2.75;;
44476;SDS011;30180;44.788;10.366;2024-03-02T09:27:18;7.65;;;2.38;;
44476;SDS011;30180;44.788;10.366;2024-03-02T09:32:16;6.13;;;2.70;;
44476;SDS011;30180;44.788;10.366;2024-03-02T09:34:45;5.15;;;2.63;;
44476;SDS011;30180;44.788;10.366;2024-03-02T09:39:44;9.85;;;2.90;;
44476;SDS011;30180;44.788;10.366;2024-03-02T09:42:12;9.10;;;2.88;;
44476;SDS011;30180;44.788;10.366;2024-03-02T09:44:43;9.07;;;2.90;;
44476;SDS011;30180;44.788;10.366;2024-03-02T09:47:12;5.40;;;2.30;;
44476;SDS011;30180;44.788;10.366;2024-03-02T09:49:40;5.28;;;2.97;;
44476;SDS011;30180;44.788;10.366;2024-03-02T09:52:10;6.45;;;3.05;;
44476;SDS011;30180;44.788;10.366;2024-03-02T09:54:39;5.25;;;2.65;;
44476;SDS011;30180;44.788;10.366;2024-03-02T09:57:08;4.75;;;2.72;;
44476;SDS011;30180;44.788;10.366;2024-03-02T09:59:37;5.90;;;2.72;;
44476;SDS011;30180;44.788;10.366;2024-03-02T10:02:07;6.65;;;2.65;;
44476;SDS011;30180;44.788;10.366;2024-03-02T10:04:37;6.68;;;2.80;;
44476;SDS011;30180;44.788;10.366;2024-03-02T10:07:12;6.35;;;2.10;;
44476;SDS011;30180;44.788;10.366;2024-03-02T10:09:41;7.32;;;2.35;;
44476;SDS011;30180;44.788;10.366;2024-03-02T10:12:12;4.68;;;2.38;;
44476;SDS011;30180;44.788;10.366;2024-03-02T10:14:42;3.50;;;2.10;;
44476;SDS011;30180;44.788;10.366;2024-03-02T10:17:13;10.00;;;2.50;;
44476;SDS011;30180;44.788;10.366;2024-03-02T10:19:42;3.53;;;2.30;;
44476;SDS011;30180;44.788;10.366;2024-03-02T10:22:10;4.10;;;2.15;;
44476;SDS011;30180;44.788;10.366;2024-03-02T10:24:39;7.28;;;2.08;;
44476;SDS011;30180;44.788;10.366;2024-03-02T10:27:14;4.78;;;2.42;;
44476;SDS011;30180;44.788;10.366;2024-03-02T10:29:45;5.20;;;2.08;;
44476;SDS011;30180;44.788;10.366;2024-03-02T10:32:16;3.65;;;1.85;;
44476;SDS011;30180;44.788;10.366;2024-03-02T10:34:45;5.63;;;2.00;;
44476;SDS011;30180;44.788;10.366;2024-03-02T10:37:15;4.93;;;2.00;;
44476;SDS011;30180;44.788;10.366;2024-03-02T10:39:45;5.45;;;2.00;;
44476;SDS011;30180;44.788;10.366;2024-03-02T10:42:15;3.30;;;1.70;;
44476;SDS011;30180;44.788;10.366;2024-03-02T10:44:46;5.85;;;1.70;;
44476;SDS011;30180;44.788;10.366;2024-03-02T10:47:17;4.47;;;2.00;;
44476;SDS011;30180;44.788;10.366;2024-03-02T10:49:47;6.72;;;1.70;;
44476;SDS011;30180;44.788;10.366;2024-03-02T10:52:17;5.73;;;1.70;;
44476;SDS011;30180;44.788;10.366;2024-03-02T10:54:46;4.97;;;1.80;;
44476;SDS011;30180;44.788;10.366;2024-03-02T10:57:15;4.90;;;1.60;;
44476;SDS011;30180;44.788;10.366;2024-03-02T10:59:51;4.68;;;1.65;;
44476;SDS011;30180;44.788;10.366;2024-03-02T11:02:22;4.57;;;1.30;;
44476;SDS011;30180;44.788;10.366;2024-03-02T11:04:53;3.88;;;1.50;;
44476;SDS011;30180;44.788;10.366;2024-03-02T11:07:24;2.63;;;1.52;;
44476;SDS011;30180;44.788;10.366;2024-03-02T11:09:57;3.88;;;1.65;;
44476;SDS011;30180;44.788;10.366;2024-03-02T11:12:28;3.15;;;1.63;;
44476;SDS011;30180;44.788;10.366;2024-03-02T11:14:59;2.05;;;1.40;;
44476;SDS011;30180;44.788;10.366;2024-03-02T11:17:30;2.65;;;1.60;;
44476;SDS011;30180;44.788;10.366;2024-03-02T11:19:59;3.45;;;1.40;;
44476;SDS011;30180;44.788;10.366;2024-03-02T11:22:28;3.10;;;1.50;;
44476;SDS011;30180;44.788;10.366;2024-03-02T11:24:57;2.92;;;1.38;;
44476;SDS011;30180;44.788;10.366;2024-03-02T11:33:26;3.25;;;1.45;;
44476;SDS011;30180;44.788;10.366;2024-03-02T11:35:57;5.32;;;1.45;;
44476;SDS011;30180;44.788;10.366;2024-03-02T11:38:30;2.47;;;1.30;;
44476;SDS011;30180;44.788;10.366;2024-03-02T11:41:00;2.15;;;1.30;;
44476;SDS011;30180;44.788;10.366;2024-03-02T11:43:29;2.45;;;1.30;;
44476;SDS011;30180;44.788;10.366;2024-03-02T11:46:00;4.03;;;1.40;;
44476;SDS011;30180;44.788;10.366;2024-03-02T11:48:36;1.92;;;1.08;;
44476;SDS011;30180;44.788;10.366;2024-03-02T11:51:06;2.35;;;1.50;;
44476;SDS011;30180;44.788;10.366;2024-03-02T11:53:35;2.35;;;1.20;;
44476;SDS011;30180;44.788;10.366;2024-03-02T11:56:06;3.45;;;1.80;;
44476;SDS011;30180;44.788;10.366;2024-03-02T11:58:38;4.45;;;1.77;;
44476;SDS011;30180;44.788;10.366;2024-03-02T12:01:08;2.95;;;1.45;;
44476;SDS011;30180;44.788;10.366;2024-03-02T12:03:40;3.50;;;1.55;;
44476;SDS011;30180;44.788;10.366;2024-03-02T12:06:08;2.45;;;1.40;;
44476;SDS011;30180;44.788;10.366;2024-03-02T12:08:37;3.33;;;1.48;;
44476;SDS011;30180;44.788;10.366;2024-03-02T12:11:07;2.78;;;1.67;;
44476;SDS011;30180;44.788;10.366;2024-03-02T12:13:35;4.05;;;1.58;;
44476;SDS011;30180;44.788;10.366;2024-03-02T12:16:04;4.53;;;1.80;;
44476;SDS011;30180;44.788;10.366;2024-03-02T12:18:34;2.50;;;1.55;;
44476;SDS011;30180;44.788;10.366;2024-03-02T12:21:04;6.15;;;1.40;;
44476;SDS011;30180;44.788;10.366;2024-03-02T12:23:35;4.25;;;1.52;;
44476;SDS011;30180;44.788;10.366;2024-03-02T12:26:03;4.05;;;1.75;;
44476;SDS011;30180;44.788;10.366;2024-03-02T12:28:32;4.18;;;1.40;;
44476;SDS011;30180;44.788;10.366;2024-03-02T12:31:02;4.93;;;1.40;;
44476;SDS011;30180;44.788;10.366;2024-03-02T12:33:31;6.15;;;1.50;;
44476;SDS011;30180;44.788;10.366;2024-03-02T12:36:00;3.72;;;1.65;;
44476;SDS011;30180;44.788;10.366;2024-03-02T12:38:30;4.63;;;1.55;;
44476;SDS011;30180;44.788;10.366;2024-03-02T12:40:58;3.50;;;1.40;;
44476;SDS011;30180;44.788;10.366;2024-03-02T12:43:29;5.65;;;1.92;;
44476;SDS011;30180;44.788;10.366;2024-03-02T12:45:58;2.88;;;1.70;;
44476;SDS011;30180;44.788;10.366;2024-03-02T12:48:27;2.53;;;1.60;;
44476;SDS011;30180;44.788;10.366;2024-03-02T12:50:56;6.47;;;1.95;;
44476;SDS011;30180;44.788;10.366;2024-03-02T12:53:24;3.38;;;1.50;;
44476;SDS011;30180;44.788;10.366;2024-03-02T12:55:55;5.07;;;1.80;;
44476;SDS011;30180;44.788;10.366;2024-03-02T12:58:24;4.32;;;1.40;;
44476;SDS011;30180;44.788;10.366;2024-03-02T13:01:05;4.07;;;1.65;;
44476;SDS011;30180;44.788;10.366;2024-03-02T13:03:36;4.30;;;1.50;;
44476;SDS011;30180;44.788;10.366;2024-03-02T13:06:05;3.25;;;1.80;;
44476;SDS011;30180;44.788;10.366;2024-03-02T13:08:35;2.63;;;1.45;;
44476;SDS011;30180;44.788;10.366;2024-03-02T13:11:05;3.97;;;1.55;;
44476;SDS011;30180;44.788;10.366;2024-03-02T13:13:34;3.40;;;1.60;;
44476;SDS011;30180;44.788;10.366;2024-03-02T13:16:04;5.78;;;1.55;;
44476;SDS011;30180;44.788;10.366;2024-03-02T13:18:37;5.53;;;1.70;;
44476;SDS011;30180;44.788;10.366;2024-03-02T13:21:07;2.88;;;1.48;;
44476;SDS011;30180;44.788;10.366;2024-03-02T13:23:36;2.42;;;1.52;;
44476;SDS011;30180;44.788;10.366;2024-03-02T13:26:06;5.10;;;1.63;;
44476;SDS011;30180;44.788;10.366;2024-03-02T13:28:37;4.95;;;1.70;;
44476;SDS011;30180;44.788;10.366;2024-03-02T13:31:05;4.43;;;1.70;;
44476;SDS011;30180;44.788;10.366;2024-03-02T13:33:34;6.93;;;1.80;;
44476;SDS011;30180;44.788;10.366;2024-03-02T13:36:03;4.20;;;1.50;;
44476;SDS011;30180;44.788;10.366;2024-03-02T13:38:32;3.00;;;1.40;;
44476;SDS011;30180;44.788;10.366;2024-03-02T13:41:01;4.55;;;1.70;;
44476;SDS011;30180;44.788;10.366;2024-03-02T13:43:31;3.72;;;1.92;;
44476;SDS011;30180;44.788;10.366;2024-03-02T13:46:01;3.47;;;1.30;;
44476;SDS011;30180;44.788;10.366;2024-03-02T13:48:31;3.00;;;1.58;;
44476;SDS011;30180;44.788;10.366;2024-03-02T13:51:00;4.20;;;1.35;;
44476;SDS011;30180;44.788;10.366;2024-03-02T13:53:29;4.20;;;1.63;;
44476;SDS011;30180;44.788;10.366;2024-03-02T13:55:58;4.20;;;2.00;;
44476;SDS011;30180;44.788;10.366;2024-03-02T13:58:27;2.88;;;1.30;;
44476;SDS011;30180;44.788;10.366;2024-03-02T14:00:58;3.25;;;1.65;;
44476;SDS011;30180;44.788;10.366;2024-03-02T14:03:27;3.13;;;1.35;;
44476;SDS011;30180;44.788;10.366;2024-03-02T14:05:57;3.88;;;1.65;;
44476;SDS011;30180;44.788;10.366;2024-03-02T14:08:26;2.55;;;1.42;;
44476;SDS011;30180;44.788;10.366;2024-03-02T14:10:54;2.83;;;1.42;;
44476;SDS011;30180;44.788;10.366;2024-03-02T14:13:27;4.30;;;1.75;;
44476;SDS011;30180;44.788;10.366;2024-03-02T14:15:57;4.03;;;1.58;;
44476;SDS011;30180;44.788;10.366;2024-03-02T14:18:26;5.10;;;1.92;;
44476;SDS011;30180;44.788;10.366;2024-03-02T14:20:55;5.90;;;1.50;;
44476;SDS011;30180;44.788;10.366;2024-03-02T14:23:24;3.55;;;1.60;;
44476;SDS011;30180;44.788;10.366;2024-03-02T14:25:55;4.25;;;1.70;;
44476;SDS011;30180;44.788;10.366;2024-03-02T14:28:26;2.55;;;1.42;;
44476;SDS011;30180;44.788;10.366;2024-03-02T14:31:16;5.65;;;1.55;;
44476;SDS011;30180;44.788;10.366;2024-03-02T14:33:46;3.22;;;1.60;;
44476;SDS011;30180;44.788;10.366;2024-03-02T14:36:15;3.83;;;1.63;;
44476;SDS011;30180;44.788;10.366;2024-03-02T14:38:44;4.22;;;1.50;;
44476;SDS011;30180;44.788;10.366;2024-03-02T14:41:13;3.13;;;1.50;;
44476;SDS011;30180;44.788;10.366;2024-03-02T14:43:41;5.93;;;1.67;;
44476;SDS011;30180;44.788;10.366;2024-03-02T14:46:10;4.10;;;1.60;;
44476;SDS011;30180;44.788;10.366;2024-03-02T14:48:40;6.55;;;1.83;;
44476;SDS011;30180;44.788;10.366;2024-03-02T14:51:11;2.92;;;1.60;;
44476;SDS011;30180;44.788;10.366;2024-03-02T14:53:41;4.60;;;1.50;;
44476;SDS011;30180;44.788;10.366;2024-03-02T14:56:10;3.97;;;1.40;;
44476;SDS011;30180;44.788;10.366;2024-03-02T14:58:40;2.65;;;1.52;;
44476;SDS011;30180;44.788;10.366;2024-03-02T15:01:10;5.13;;;1.53;;